createdAt,value
2022-12-25T00:01:20.634Z,9.00
2022-12-25T00:03:55.889Z,10.00
2022-12-25T00:06:28.374Z,9.40
2022-12-25T00:09:01.217Z,9.80
2022-12-25T00:11:33.710Z,12.90
2022-12-25T00:14:06.562Z,10.60
2022-12-25T00:16:39.550Z,11.30
2022-12-25T00:19:12.038Z,11.50
2022-12-25T00:21:44.555Z,14.00
2022-12-25T00:24:16.895Z,14.60
2022-12-25T00:26:49.312Z,15.30
2022-12-25T00:29:22.353Z,23.90
2022-12-25T00:31:58.119Z,14.20
2022-12-25T00:34:30.543Z,13.80
2022-12-25T00:37:03.494Z,12.70
2022-12-25T00:39:35.891Z,23.90
2022-12-25T00:42:20.894Z,33.30
2022-12-25T00:44:53.960Z,19.90
2022-12-25T00:47:29.610Z,20.40
2022-12-25T00:50:02.371Z,19.20
2022-12-25T00:52:35.188Z,16.00
2022-12-25T00:55:08.307Z,19.50
2022-12-25T00:57:40.775Z,27.20
2022-12-25T01:00:17.214Z,21.90
2022-12-25T01:02:49.634Z,18.60
2022-12-25T01:05:22.204Z,15.50
2022-12-25T01:07:54.508Z,17.40
2022-12-25T01:10:26.945Z,15.80
2022-12-25T01:13:02.523Z,22.80
2022-12-25T01:15:37.801Z,13.90
2022-12-25T01:18:12.875Z,16.90
2022-12-25T01:20:45.815Z,16.10
2022-12-25T01:23:18.281Z,23.30
2022-12-25T01:25:51.433Z,24.30
2022-12-25T01:28:24.068Z,15.70
2022-12-25T01:30:56.425Z,19.20
2022-12-25T01:33:28.810Z,16.50
2022-12-25T01:36:01.153Z,23.30
2022-12-25T01:38:33.533Z,14.20
2022-12-25T01:41:09.287Z,17.60
2022-12-25T01:43:59.851Z,17.10
2022-12-25T01:49:06.766Z,13.80
2022-12-25T01:51:43.494Z,13.50
2022-12-25T01:54:21.534Z,16.30
2022-12-25T01:56:57.047Z,21.00
2022-12-25T01:59:30.893Z,13.50
2022-12-25T02:02:04.540Z,13.80
2022-12-25T02:04:44.227Z,15.20
2022-12-25T02:07:20.118Z,18.10
2022-12-25T02:09:52.994Z,13.20
2022-12-25T02:12:27.825Z,22.70
2022-12-25T02:15:05.668Z,16.20
2022-12-25T02:17:46.692Z,14.70
2022-12-25T02:20:49.730Z,12.10
2022-12-25T02:23:54.413Z,12.20
2022-12-25T02:26:49.923Z,14.60
2022-12-25T02:29:28.316Z,13.00
2022-12-25T02:32:15.724Z,13.30
2022-12-25T02:34:54.759Z,15.10
2022-12-25T02:37:33.183Z,12.00
2022-12-25T02:40:17.531Z,11.00
2022-12-25T02:43:14.720Z,11.30
2022-12-25T02:46:11.144Z,12.20
2022-12-25T02:49:08.291Z,24.70
2022-12-25T02:52:05.904Z,12.70
2022-12-25T02:55:02.521Z,13.80
2022-12-25T02:57:57.995Z,14.80
2022-12-25T03:00:50.678Z,12.20
2022-12-25T03:03:49.208Z,14.80
2022-12-25T03:06:47.053Z,20.30
2022-12-25T03:09:41.385Z,18.30
2022-12-25T03:12:22.996Z,12.40
2022-12-25T03:15:12.899Z,12.00
2022-12-25T03:17:45.454Z,12.20
2022-12-25T03:20:35.705Z,11.80
2022-12-25T03:23:27.957Z,84.50
2022-12-25T03:26:19.599Z,14.80
2022-12-25T03:28:54.927Z,13.00
2022-12-25T03:31:38.071Z,10.80
2022-12-25T03:34:51.016Z,11.30
2022-12-25T03:37:51.415Z,10.60
2022-12-25T03:40:52.714Z,22.90
2022-12-25T03:43:57.080Z,11.70
2022-12-25T03:46:55.020Z,12.80
2022-12-25T03:49:50.144Z,16.30
2022-12-25T03:52:41.337Z,17.80
2022-12-25T03:55:33.359Z,16.00
2022-12-25T03:58:23.395Z,12.20
2022-12-25T04:01:16.469Z,17.40
2022-12-25T04:04:09.049Z,15.20
2022-12-25T04:06:59.176Z,18.50
2022-12-25T04:09:51.325Z,17.90
2022-12-25T04:12:44.053Z,17.60
2022-12-25T04:15:34.197Z,21.90
2022-12-25T04:18:25.189Z,22.10
2022-12-25T04:21:17.024Z,28.00
2022-12-25T04:24:08.160Z,24.50
2022-12-25T04:26:58.960Z,21.60
2022-12-25T04:29:48.515Z,17.70
2022-12-25T04:32:38.537Z,18.60
2022-12-25T04:35:29.421Z,19.00
2022-12-25T04:38:01.924Z,19.80
2022-12-25T04:40:34.381Z,27.10
2022-12-25T04:43:06.902Z,40.10
2022-12-25T04:45:39.306Z,51.80
2022-12-25T04:48:14.346Z,33.90
2022-12-25T04:50:49.713Z,19.30
2022-12-25T04:53:22.199Z,18.80
2022-12-25T04:56:03.872Z,16.80
2022-12-25T04:58:36.250Z,13.20
2022-12-25T05:01:09.035Z,12.10
2022-12-25T05:03:42.945Z,11.80
2022-12-25T05:06:16.116Z,18.30
2022-12-25T05:08:48.501Z,12.70
2022-12-25T05:11:21.013Z,12.60
2022-12-25T05:13:53.386Z,12.30
2022-12-25T05:16:29.261Z,13.40
2022-12-25T05:19:05.813Z,15.20
2022-12-25T05:21:38.307Z,14.90
2022-12-25T05:24:11.064Z,20.40
2022-12-25T05:26:43.848Z,21.20
2022-12-25T05:29:18.295Z,24.10
2022-12-25T05:31:50.712Z,28.50
2022-12-25T05:34:26.370Z,28.70
2022-12-25T05:36:58.801Z,24.90
2022-12-25T05:39:34.587Z,30.20
2022-12-25T05:42:10.517Z,35.40
2022-12-25T05:44:45.900Z,39.50
2022-12-25T05:47:18.408Z,27.70
2022-12-25T05:49:50.900Z,28.00
2022-12-25T05:52:23.482Z,24.10
2022-12-25T05:54:55.836Z,30.90
2022-12-25T05:57:29.230Z,23.80
2022-12-25T06:00:01.643Z,29.30
2022-12-25T06:02:37.950Z,36.60
2022-12-25T06:05:13.662Z,35.40
2022-12-25T06:07:46.045Z,25.80
2022-12-25T06:10:18.602Z,20.30
2022-12-25T06:12:50.929Z,17.00
2022-12-25T06:15:23.439Z,15.40
2022-12-25T06:17:56.231Z,15.60
2022-12-25T06:20:28.866Z,14.10
2022-12-25T06:23:01.287Z,22.90
2022-12-25T06:25:36.878Z,23.30
2022-12-25T06:28:12.337Z,23.40
2022-12-25T06:30:44.857Z,25.30
2022-12-25T06:33:17.242Z,39.30
2022-12-25T06:35:52.038Z,23.90
2022-12-25T06:38:26.916Z,30.40
2022-12-25T06:41:03.805Z,29.00
2022-12-25T06:43:36.260Z,37.30
2022-12-25T06:46:11.000Z,36.90
2022-12-25T06:48:49.339Z,43.30
2022-12-25T06:51:24.469Z,50.30
2022-12-25T06:54:00.671Z,37.50
2022-12-25T06:56:34.146Z,34.10
2022-12-25T06:59:11.632Z,23.50
2022-12-25T07:01:51.211Z,22.20
2022-12-25T07:04:28.361Z,20.40
2022-12-25T07:07:07.988Z,18.50
2022-12-25T07:09:42.723Z,28.50
2022-12-25T07:12:20.866Z,30.60
2022-12-25T07:14:55.061Z,35.50
2022-12-25T07:17:27.454Z,18.50
2022-12-25T07:19:59.794Z,16.00
2022-12-25T07:22:32.461Z,13.80
2022-12-25T07:25:04.832Z,15.50
2022-12-25T07:27:37.133Z,13.60
2022-12-25T07:30:11.351Z,12.30
2022-12-25T07:32:49.851Z,15.60
2022-12-25T07:35:22.640Z,14.60
2022-12-25T07:37:55.011Z,12.80
2022-12-25T07:40:27.287Z,13.10
2022-12-25T07:42:59.599Z,13.50
2022-12-25T07:45:32.005Z,15.40
2022-12-25T07:48:06.292Z,17.10
2022-12-25T07:50:40.969Z,17.20
2022-12-25T07:53:13.411Z,17.50
2022-12-25T07:55:45.722Z,15.90
2022-12-25T07:58:23.173Z,15.70
2022-12-25T08:00:58.839Z,14.90
2022-12-25T08:03:32.569Z,14.80
2022-12-25T08:06:06.930Z,19.00
2022-12-25T08:08:40.300Z,18.30
2022-12-25T08:11:13.336Z,21.10
2022-12-25T08:13:45.694Z,17.80
2022-12-25T08:16:18.128Z,19.60
2022-12-25T08:18:50.871Z,16.80
2022-12-25T08:21:23.339Z,19.00
2022-12-25T08:23:57.289Z,18.40
2022-12-25T08:26:29.978Z,16.80
2022-12-25T08:29:03.121Z,16.70
2022-12-25T08:31:39.437Z,18.30
2022-12-25T08:34:15.280Z,16.60
2022-12-25T08:36:47.715Z,17.60
2022-12-25T08:39:20.244Z,17.90
2022-12-25T08:41:52.482Z,18.70
2022-12-25T08:44:26.100Z,19.00
2022-12-25T08:46:58.297Z,18.60
2022-12-25T08:49:30.625Z,18.70
2022-12-25T08:52:05.487Z,18.70
2022-12-25T08:54:38.004Z,20.40
2022-12-25T08:57:10.302Z,19.00
2022-12-25T08:59:45.407Z,31.00
2022-12-25T09:02:19.735Z,22.60
2022-12-25T09:04:52.562Z,24.90
2022-12-25T09:07:24.944Z,21.80
2022-12-25T09:09:58.309Z,15.00
2022-12-25T09:12:30.615Z,14.00
2022-12-25T09:15:02.908Z,13.20
2022-12-25T09:17:35.797Z,17.80
2022-12-25T09:20:10.065Z,14.20
2022-12-25T09:22:42.286Z,16.90
2022-12-25T09:25:15.036Z,14.60
2022-12-25T09:27:47.392Z,19.00
2022-12-25T09:30:20.018Z,14.00
2022-12-25T09:32:52.343Z,17.00
2022-12-25T09:35:24.716Z,13.30
2022-12-25T09:37:57.158Z,12.10
2022-12-25T09:40:33.457Z,10.40
2022-12-25T09:43:06.884Z,12.20
2022-12-25T09:45:42.824Z,9.60
2022-12-25T09:48:17.669Z,11.00
2022-12-25T09:50:55.117Z,10.10
2022-12-25T09:53:30.254Z,12.30
2022-12-25T09:56:10.593Z,13.30
2022-12-25T09:58:45.782Z,11.30
2022-12-25T10:01:30.301Z,10.30
2022-12-25T10:04:34.749Z,10.20
2022-12-25T10:07:18.235Z,10.90
2022-12-25T10:10:04.206Z,11.20
2022-12-25T10:12:47.117Z,10.10
2022-12-25T10:15:36.710Z,8.80
2022-12-25T10:18:31.975Z,8.80
2022-12-25T10:21:13.383Z,8.70
2022-12-25T10:23:56.478Z,9.10
2022-12-25T10:26:34.898Z,8.80
2022-12-25T10:29:14.545Z,9.20
2022-12-25T10:31:51.736Z,8.80
2022-12-25T10:34:27.945Z,9.70
2022-12-25T10:37:02.131Z,10.30
2022-12-25T10:39:40.981Z,8.40
2022-12-25T10:42:31.931Z,9.80
2022-12-25T10:45:08.028Z,10.60
2022-12-25T10:47:43.505Z,9.30
2022-12-25T10:50:23.807Z,23.10
2022-12-25T10:55:33.262Z,17.40
2022-12-25T10:58:07.134Z,13.70
2022-12-25T11:00:39.631Z,13.10
2022-12-25T11:03:25.046Z,6.80
2022-12-25T11:05:58.327Z,15.60
2022-12-25T11:08:33.555Z,8.20
2022-12-25T11:11:07.455Z,9.20
2022-12-25T11:13:49.045Z,9.30
2022-12-25T11:16:33.659Z,11.30
2022-12-25T11:19:30.536Z,11.00
2022-12-25T11:22:05.256Z,11.60
2022-12-25T11:24:37.593Z,9.10
2022-12-25T11:27:21.583Z,13.30
2022-12-25T11:29:57.354Z,11.20
2022-12-25T11:32:35.210Z,8.00
2022-12-25T11:35:14.189Z,8.60
2022-12-25T11:37:50.257Z,7.60
2022-12-25T11:40:26.359Z,8.10
2022-12-25T11:43:08.353Z,7.50
2022-12-25T11:45:46.545Z,7.40
2022-12-25T11:48:26.391Z,8.40
2022-12-25T11:51:01.465Z,6.60
2022-12-25T11:53:42.629Z,6.10
2022-12-25T11:56:19.923Z,7.60
2022-12-25T11:58:54.417Z,7.60
2022-12-25T12:01:34.599Z,7.80
2022-12-25T12:04:16.016Z,10.20
2022-12-25T12:06:53.925Z,9.90
2022-12-25T12:09:45.544Z,11.80
2022-12-25T12:12:28.308Z,11.10
2022-12-25T12:15:08.750Z,11.10
2022-12-25T12:20:35.433Z,10.00
2022-12-25T12:23:18.257Z,12.00
2022-12-25T12:26:01.477Z,10.00
2022-12-25T12:28:46.079Z,8.60
2022-12-25T12:31:18.792Z,10.50
2022-12-25T12:33:58.589Z,9.00
2022-12-25T12:36:37.015Z,10.20
2022-12-25T12:39:22.816Z,8.80
2022-12-25T12:41:55.570Z,8.80
2022-12-25T12:44:33.102Z,8.10
2022-12-25T12:47:05.716Z,7.60
2022-12-25T12:49:38.213Z,8.50
2022-12-25T12:52:24.671Z,7.80
2022-12-25T12:55:01.680Z,7.60
2022-12-25T12:57:39.634Z,8.20
2022-12-25T13:00:21.514Z,6.40
2022-12-25T13:03:11.098Z,7.20
2022-12-25T13:05:48.152Z,8.80
2022-12-25T13:08:35.559Z,8.40
2022-12-25T13:11:15.743Z,13.40
2022-12-25T13:13:49.945Z,14.60
2022-12-25T13:16:28.264Z,16.80
2022-12-25T13:19:08.298Z,18.00
2022-12-25T13:21:43.078Z,18.00
2022-12-25T13:24:23.649Z,20.70
2022-12-25T13:26:56.788Z,24.00
2022-12-25T13:29:36.626Z,22.50
2022-12-25T13:32:20.263Z,24.80
2022-12-25T13:34:53.119Z,25.80
2022-12-25T13:37:29.876Z,25.20
2022-12-25T13:40:21.596Z,25.80
2022-12-25T13:42:56.781Z,23.50
2022-12-25T13:45:34.131Z,22.80
2022-12-25T13:48:22.276Z,23.00
2022-12-25T13:51:04.214Z,21.80
2022-12-25T13:53:39.394Z,23.20
2022-12-25T13:56:18.430Z,22.30
2022-12-25T13:58:51.557Z,23.90
2022-12-25T14:01:23.909Z,23.90
2022-12-25T14:03:57.305Z,22.20
2022-12-25T14:06:33.091Z,22.40
2022-12-25T14:09:05.652Z,22.70
2022-12-25T14:11:38.669Z,21.60
2022-12-25T14:14:19.388Z,21.40
2022-12-25T14:16:58.515Z,20.60
2022-12-25T14:19:35.608Z,20.50
2022-12-25T14:22:18.684Z,20.60
2022-12-25T14:24:51.369Z,20.70
2022-12-25T14:27:26.426Z,20.70
2022-12-25T14:30:00.730Z,19.70
2022-12-25T14:32:40.827Z,19.60
2022-12-25T14:35:23.106Z,20.80
2022-12-25T14:38:01.119Z,19.90
2022-12-25T14:40:36.101Z,20.00
2022-12-25T14:43:23.024Z,19.20
2022-12-25T14:46:03.207Z,19.60
2022-12-25T14:48:35.962Z,19.60
2022-12-25T14:51:17.111Z,18.00
2022-12-25T14:53:57.618Z,19.50
2022-12-25T14:56:38.014Z,20.60
2022-12-25T14:59:20.392Z,20.30
2022-12-25T15:01:58.396Z,20.50
2022-12-25T15:04:31.695Z,21.20
2022-12-25T15:07:09.561Z,18.50
2022-12-25T15:09:42.628Z,17.80
2022-12-25T15:12:15.561Z,18.90
2022-12-25T15:14:48.506Z,19.60
2022-12-25T15:17:27.598Z,18.90
2022-12-25T15:20:04.214Z,17.50
2022-12-25T15:23:02.274Z,19.00
2022-12-25T15:25:29.589Z,17.90
2022-12-25T15:28:02.097Z,17.90
2022-12-25T15:30:35.727Z,19.40
2022-12-25T15:33:08.748Z,21.00
2022-12-25T15:35:46.955Z,20.00
2022-12-25T15:38:21.817Z,20.80
2022-12-25T15:41:06.246Z,21.50
2022-12-25T15:43:41.344Z,22.80
2022-12-25T15:46:20.581Z,23.50
2022-12-25T15:48:53.365Z,24.20
2022-12-25T15:51:25.894Z,25.70
2022-12-25T15:54:02.067Z,26.40
2022-12-25T15:56:41.850Z,31.30
2022-12-25T15:59:17.068Z,31.60
2022-12-25T16:01:54.495Z,31.60
2022-12-25T16:04:31.434Z,32.90
2022-12-25T16:07:03.930Z,32.40
2022-12-25T16:09:38.308Z,37.90
2022-12-25T16:12:11.705Z,39.80
2022-12-25T16:14:46.336Z,40.10
2022-12-25T16:17:20.359Z,42.20
2022-12-25T16:19:53.163Z,40.30
2022-12-25T16:22:26.843Z,40.50
2022-12-25T16:25:02.273Z,48.00
2022-12-25T16:27:40.444Z,47.20
2022-12-25T16:30:18.486Z,49.50
2022-12-25T16:32:54.283Z,51.30
2022-12-25T16:35:30.644Z,57.00
2022-12-25T16:38:03.413Z,55.40
2022-12-25T16:40:36.722Z,54.30
2022-12-25T16:43:12.319Z,51.80
2022-12-25T16:45:44.721Z,48.70
2022-12-25T16:48:17.299Z,47.00
2022-12-25T16:50:54.365Z,42.30
2022-12-25T16:53:26.897Z,43.40
2022-12-25T16:56:08.298Z,44.80
2022-12-25T16:58:40.695Z,46.60
2022-12-25T17:01:14.452Z,44.60
2022-12-25T17:03:47.337Z,47.90
2022-12-25T17:06:24.681Z,52.30
2022-12-25T17:08:59.990Z,56.30
2022-12-25T17:11:33.231Z,60.50
2022-12-25T17:14:07.700Z,66.60
2022-12-25T17:16:41.061Z,61.20
2022-12-25T17:19:19.970Z,66.30
2022-12-25T17:21:54.807Z,64.10
2022-12-25T17:24:27.164Z,70.20
2022-12-25T17:26:59.427Z,68.80
2022-12-25T17:29:33.064Z,75.40
2022-12-25T17:32:05.422Z,84.00
2022-12-25T17:34:38.027Z,84.30
2022-12-25T17:37:10.757Z,89.10
2022-12-25T17:39:43.300Z,81.90
2022-12-25T17:42:15.590Z,75.10
2022-12-25T17:44:48.912Z,81.00
2022-12-25T17:47:21.279Z,88.40
2022-12-25T17:49:53.687Z,91.70
2022-12-25T17:52:26.091Z,87.70
2022-12-25T17:54:58.387Z,87.80
2022-12-25T17:57:30.662Z,86.10
2022-12-25T18:00:03.046Z,82.00
2022-12-25T18:02:38.077Z,90.80
2022-12-25T18:05:12.039Z,93.20
2022-12-25T18:07:44.370Z,83.50
2022-12-25T18:10:17.173Z,81.40
2022-12-25T18:12:49.771Z,81.60
2022-12-25T18:15:22.755Z,88.60
2022-12-25T18:17:55.779Z,73.50
2022-12-25T18:20:31.840Z,88.40
2022-12-25T18:23:08.512Z,67.90
2022-12-25T18:25:43.940Z,74.70
2022-12-25T18:28:16.303Z,82.20
2022-12-25T18:30:49.821Z,69.40
2022-12-25T18:33:22.327Z,67.00
2022-12-25T18:36:00.022Z,67.40
2022-12-25T18:38:32.806Z,67.90
2022-12-25T18:41:07.632Z,68.20
2022-12-25T18:43:53.090Z,70.30
2022-12-25T18:46:28.288Z,74.40
2022-12-25T18:49:01.292Z,71.40
2022-12-25T18:51:37.150Z,74.10
2022-12-25T18:54:09.743Z,69.20
2022-12-25T18:56:48.402Z,71.40
2022-12-25T18:59:24.487Z,83.50
2022-12-25T19:01:56.948Z,84.20
2022-12-25T19:04:33.717Z,77.50
2022-12-25T19:07:06.042Z,70.60
2022-12-25T19:09:43.368Z,70.60
2022-12-25T19:12:15.773Z,68.60
2022-12-25T19:14:48.656Z,73.30
2022-12-25T19:17:23.433Z,72.00
2022-12-25T19:19:59.078Z,69.80
2022-12-25T19:22:33.202Z,72.00
2022-12-25T19:25:05.975Z,65.80
2022-12-25T19:27:38.192Z,61.50
2022-12-25T19:30:12.941Z,61.40
2022-12-25T19:32:45.220Z,60.10
2022-12-25T19:35:17.975Z,56.50
2022-12-25T19:37:50.395Z,52.50
2022-12-25T19:40:22.769Z,47.50
2022-12-25T19:42:55.292Z,48.10
2022-12-25T19:45:27.605Z,47.50
2022-12-25T19:48:00.036Z,45.00
2022-12-25T19:50:34.760Z,45.10
2022-12-25T19:53:07.127Z,51.20
2022-12-25T19:55:39.427Z,51.10
2022-12-25T19:58:12.112Z,51.90
2022-12-25T20:00:44.542Z,47.70
2022-12-25T20:03:17.018Z,45.60
2022-12-25T20:05:49.398Z,45.20
2022-12-25T20:08:22.123Z,42.50
2022-12-25T20:10:54.516Z,43.10
2022-12-25T20:13:27.317Z,43.90
2022-12-25T20:16:04.629Z,44.30
2022-12-25T20:18:37.285Z,47.60
2022-12-25T20:21:16.359Z,51.30
2022-12-25T20:23:53.847Z,49.60
2022-12-25T20:26:33.690Z,54.00
2022-12-25T20:29:06.942Z,50.70
2022-12-25T20:31:40.461Z,52.60
2022-12-25T20:34:18.468Z,48.50
2022-12-25T20:36:51.582Z,47.00
2022-12-25T20:39:24.950Z,49.40
2022-12-25T20:41:57.643Z,50.60
2022-12-25T20:44:31.596Z,46.50
2022-12-25T20:47:03.896Z,50.50
2022-12-25T20:49:36.655Z,53.00
2022-12-25T20:52:09.394Z,60.60
2022-12-25T20:54:42.387Z,59.90
2022-12-25T20:57:14.758Z,57.30
2022-12-25T20:59:47.502Z,55.30
2022-12-25T21:02:35.402Z,55.00
2022-12-25T21:05:12.608Z,51.90
2022-12-25T21:07:45.071Z,53.70
2022-12-25T21:10:17.676Z,49.80
2022-12-25T21:12:50.071Z,43.60
2022-12-25T21:15:22.505Z,43.30
2022-12-25T21:17:54.739Z,46.00
2022-12-25T21:20:27.036Z,41.90
2022-12-25T21:22:59.728Z,41.40
2022-12-25T21:25:32.111Z,42.30
2022-12-25T21:28:04.482Z,41.50
2022-12-25T21:30:37.137Z,41.00
2022-12-25T21:33:26.817Z,38.20
2022-12-25T21:36:05.340Z,36.80
2022-12-25T21:38:38.043Z,37.20
2022-12-25T21:41:12.148Z,36.40
2022-12-25T21:43:44.564Z,36.90
2022-12-25T21:46:18.591Z,37.20
2022-12-25T21:48:51.669Z,37.00
2022-12-25T21:51:45.695Z,38.30
2022-12-25T21:54:18.515Z,38.60
2022-12-25T21:56:51.249Z,37.10
2022-12-25T21:59:24.489Z,34.40
2022-12-25T22:01:56.899Z,36.90
2022-12-25T22:04:29.298Z,34.40
2022-12-25T22:07:19.776Z,34.50
2022-12-25T22:09:53.960Z,34.90
2022-12-25T22:12:43.888Z,34.20
2022-12-25T22:15:16.371Z,30.80
2022-12-25T22:18:06.443Z,28.60
2022-12-25T22:23:11.615Z,26.10
2022-12-25T22:25:43.948Z,24.10
2022-12-25T22:28:16.422Z,25.10
2022-12-25T22:30:48.823Z,22.80
2022-12-25T22:33:22.627Z,21.30
2022-12-25T22:36:04.261Z,23.80
2022-12-25T22:38:36.690Z,21.60
2022-12-25T22:41:09.522Z,21.80
2022-12-25T22:44:15.823Z,22.70
2022-12-25T22:46:34.161Z,23.30
2022-12-25T22:49:06.667Z,22.50
2022-12-25T22:51:38.983Z,21.50
2022-12-25T22:54:13.158Z,23.20
2022-12-25T22:56:49.461Z,22.00
2022-12-25T22:59:23.713Z,23.20
2022-12-25T23:01:56.708Z,24.60
2022-12-25T23:04:29.146Z,24.60
2022-12-25T23:07:02.089Z,22.60
2022-12-25T23:09:35.300Z,21.70
2022-12-25T23:12:28.540Z,22.50
2022-12-25T23:15:01.057Z,22.40
2022-12-25T23:17:50.978Z,22.80
2022-12-25T23:20:41.222Z,23.60
2022-12-25T23:23:34.971Z,22.00
2022-12-25T23:26:10.566Z,24.00
2022-12-25T23:29:01.871Z,23.50
2022-12-25T23:31:37.923Z,20.90
2022-12-25T23:34:11.191Z,22.00
2022-12-25T23:36:43.474Z,20.60
2022-12-25T23:39:18.646Z,20.90
2022-12-25T23:41:51.155Z,22.50
2022-12-25T23:44:23.593Z,21.50
2022-12-25T23:46:56.166Z,19.70
2022-12-25T23:49:28.793Z,20.90
2022-12-25T23:52:04.745Z,20.50
2022-12-25T23:54:37.316Z,19.60
2022-12-25T23:57:09.898Z,20.70
2022-12-25T23:59:42.773Z,19.00
